createdAt,value
2022-12-16T00:03:14.172Z,28.40
2022-12-16T00:08:10.828Z,30.05
2022-12-16T00:13:10.482Z,27.50
2022-12-16T00:18:07.130Z,24.10
2022-12-16T00:23:03.548Z,26.50
2022-12-16T00:28:00.598Z,29.00
2022-12-16T00:32:57.032Z,30.75
2022-12-16T00:37:53.401Z,27.92
2022-12-16T00:42:49.981Z,30.02
2022-12-16T00:47:46.682Z,28.17
2022-12-16T00:52:43.041Z,25.00
2022-12-16T00:57:39.486Z,31.83
2022-12-16T01:02:35.949Z,24.08
2022-12-16T01:07:32.441Z,26.38
2022-12-16T01:12:28.819Z,26.63
2022-12-16T01:17:28.185Z,24.05
2022-12-16T01:22:25.384Z,25.17
2022-12-16T01:27:21.810Z,26.50
2022-12-16T01:32:19.438Z,20.85
2022-12-16T01:37:15.821Z,26.30
2022-12-16T01:42:16.815Z,26.42
2022-12-16T01:47:16.447Z,23.55
2022-12-16T01:52:21.115Z,26.60
2022-12-16T01:57:22.360Z,27.08
2022-12-16T02:02:20.494Z,25.75
2022-12-16T02:07:17.038Z,24.88
2022-12-16T02:12:20.849Z,32.17
2022-12-16T02:17:24.417Z,30.80
2022-12-16T02:22:23.364Z,27.90
2022-12-16T02:33:07.442Z,24.63
2022-12-16T02:38:27.387Z,26.00
2022-12-16T02:43:43.838Z,24.05
2022-12-16T02:48:40.280Z,25.73
2022-12-16T02:53:39.297Z,19.70
2022-12-16T02:58:46.827Z,24.58
2022-12-16T03:04:12.672Z,25.23
2022-12-16T03:09:12.768Z,25.08
2022-12-16T03:14:11.824Z,19.13
2022-12-16T03:19:11.716Z,27.92
2022-12-16T03:24:10.703Z,18.60
2022-12-16T03:29:26.261Z,22.73
2022-12-16T03:34:37.605Z,30.70
2022-12-16T03:39:56.533Z,28.45
2022-12-16T03:44:53.178Z,26.33
2022-12-16T03:49:49.839Z,26.85
2022-12-16T03:54:46.196Z,27.20
2022-12-16T03:59:42.877Z,27.23
2022-12-16T04:04:39.256Z,29.98
2022-12-16T04:09:35.629Z,32.03
2022-12-16T04:14:53.562Z,31.00
2022-12-16T04:20:09.302Z,27.20
2022-12-16T04:25:10.713Z,32.28
2022-12-16T04:30:19.792Z,25.10
2022-12-16T04:35:34.764Z,23.65
2022-12-16T04:40:49.988Z,26.83
2022-12-16T04:46:05.964Z,19.23
2022-12-16T04:51:31.519Z,25.02
2022-12-16T04:56:46.723Z,23.42
2022-12-16T05:02:02.220Z,27.95
2022-12-16T05:07:17.122Z,21.33
2022-12-16T05:12:32.017Z,24.60
2022-12-16T05:17:47.203Z,26.33
2022-12-16T05:23:02.272Z,27.52
2022-12-16T05:28:17.561Z,23.13
2022-12-16T05:33:33.055Z,22.38
2022-12-16T05:38:48.414Z,24.45
2022-12-16T05:44:03.273Z,23.23
2022-12-16T05:49:18.406Z,22.55
2022-12-16T05:54:33.684Z,22.20
2022-12-16T05:59:49.136Z,21.73
2022-12-16T06:05:04.353Z,20.35
2022-12-16T06:10:19.172Z,19.48
2022-12-16T06:15:34.195Z,25.90
2022-12-16T06:20:49.356Z,22.15
2022-12-16T06:26:04.301Z,17.33
2022-12-16T06:31:19.098Z,17.15
2022-12-16T06:36:34.071Z,18.35
2022-12-16T06:41:48.808Z,16.13
2022-12-16T06:47:03.608Z,19.67
2022-12-16T06:52:18.717Z,18.70
2022-12-16T06:57:33.803Z,20.30
2022-12-16T07:02:49.078Z,24.88
2022-12-16T07:08:08.094Z,25.63
2022-12-16T07:13:23.258Z,19.63
2022-12-16T07:18:38.524Z,31.90
2022-12-16T07:23:53.747Z,18.67
2022-12-16T07:29:09.555Z,22.00
2022-12-16T07:34:24.477Z,21.10
2022-12-16T07:39:41.208Z,20.23
2022-12-16T07:44:56.428Z,14.48
2022-12-16T07:50:11.647Z,20.35
2022-12-16T07:55:27.018Z,15.43
2022-12-16T08:00:42.091Z,18.20
2022-12-16T08:05:56.891Z,19.10
2022-12-16T08:11:11.715Z,19.52
2022-12-16T08:16:26.971Z,16.58
2022-12-16T08:21:42.105Z,23.33
2022-12-16T08:26:57.236Z,21.67
2022-12-16T08:32:12.763Z,21.17
2022-12-16T08:37:27.877Z,25.15
2022-12-16T08:42:42.877Z,20.80
2022-12-16T08:47:58.032Z,30.40
2022-12-16T08:53:13.250Z,25.08
2022-12-16T08:58:28.453Z,17.67
2022-12-16T09:03:43.935Z,18.48
2022-12-16T09:09:12.745Z,12.73
2022-12-16T09:14:27.470Z,20.30
2022-12-16T09:19:42.358Z,13.05
2022-12-16T09:24:57.644Z,14.15
2022-12-16T09:30:12.677Z,13.25
2022-12-16T09:35:27.919Z,16.33
2022-12-16T09:40:43.172Z,15.00
2022-12-16T09:46:07.412Z,15.15
2022-12-16T09:51:24.767Z,16.65
2022-12-16T09:56:51.663Z,17.55
2022-12-16T10:02:20.757Z,13.98
2022-12-16T10:07:38.637Z,14.38
2022-12-16T10:13:07.322Z,14.90
2022-12-16T10:18:32.187Z,17.80
2022-12-16T10:23:57.470Z,13.77
2022-12-16T10:29:30.508Z,17.27
2022-12-16T10:34:53.279Z,14.20
2022-12-16T10:40:14.437Z,21.85
2022-12-16T10:45:44.149Z,17.60
2022-12-16T10:50:59.324Z,19.10
2022-12-16T10:56:56.214Z,14.75
2022-12-16T11:02:22.128Z,26.45
2022-12-16T11:07:57.396Z,16.02
2022-12-16T11:13:12.173Z,16.73
2022-12-16T11:18:33.187Z,13.38
2022-12-16T11:24:08.325Z,27.45
2022-12-16T11:29:36.174Z,17.48
2022-12-16T11:34:53.066Z,20.77
2022-12-16T11:40:07.954Z,24.38
2022-12-16T11:45:31.070Z,19.38
2022-12-16T11:50:51.165Z,19.05
2022-12-16T11:56:15.964Z,20.88
2022-12-16T12:01:45.038Z,18.42
2022-12-16T12:07:18.208Z,23.25
2022-12-16T12:12:52.445Z,16.63
2022-12-16T12:18:20.468Z,25.27
2022-12-16T12:23:46.504Z,27.02
2022-12-16T12:29:22.523Z,21.60
2022-12-16T12:35:14.912Z,18.70
2022-12-16T12:40:45.154Z,21.13
2022-12-16T12:46:20.865Z,23.95
2022-12-16T12:51:52.881Z,25.55
2022-12-16T12:57:11.112Z,22.98
2022-12-16T13:02:33.670Z,17.17
2022-12-16T13:07:51.307Z,19.88
2022-12-16T13:13:36.433Z,20.38
2022-12-16T13:18:52.026Z,17.40
2022-12-16T13:24:07.064Z,20.15
2022-12-16T13:29:38.869Z,24.77
2022-12-16T13:34:53.967Z,17.67
2022-12-16T13:40:35.496Z,20.35
2022-12-16T13:46:31.950Z,15.32
2022-12-16T13:51:56.089Z,19.60
2022-12-16T13:57:27.698Z,19.13
2022-12-16T14:02:57.689Z,16.20
2022-12-16T14:08:13.051Z,16.83
2022-12-16T14:13:56.030Z,15.82
2022-12-16T14:19:31.237Z,15.85
2022-12-16T14:24:46.519Z,15.93
2022-12-16T14:30:02.638Z,16.70
2022-12-16T14:35:20.809Z,16.15
2022-12-16T14:40:46.296Z,14.97
2022-12-16T14:46:09.426Z,18.88
2022-12-16T14:51:48.232Z,16.77
2022-12-16T14:57:03.652Z,19.13
2022-12-16T15:02:31.554Z,15.85
2022-12-16T15:07:54.109Z,11.77
2022-12-16T15:13:25.222Z,13.82
2022-12-16T15:18:45.637Z,17.27
2022-12-16T15:24:03.312Z,23.33
2022-12-16T15:29:18.343Z,16.63
2022-12-16T15:34:43.765Z,15.50
2022-12-16T15:40:00.638Z,19.48
2022-12-16T15:45:15.833Z,13.07
2022-12-16T15:50:33.435Z,14.32
2022-12-16T15:56:04.504Z,20.98
2022-12-16T16:01:20.078Z,21.77
2022-12-16T16:06:43.929Z,19.90
2022-12-16T16:11:59.889Z,20.23
2022-12-16T16:17:15.054Z,22.33
2022-12-16T16:22:36.965Z,19.13
2022-12-16T16:27:52.099Z,24.73
2022-12-16T16:33:07.222Z,23.63
2022-12-16T16:38:22.110Z,17.63
2022-12-16T16:43:37.425Z,19.42
2022-12-16T16:48:52.533Z,27.88
2022-12-16T16:54:07.767Z,23.88
2022-12-16T16:59:23.450Z,31.95
2022-12-16T17:04:39.092Z,28.42
2022-12-16T17:09:53.937Z,25.90
2022-12-16T17:15:11.206Z,16.23
2022-12-16T17:20:27.536Z,20.50
2022-12-16T17:25:42.514Z,18.90
2022-12-16T17:30:57.997Z,22.30
2022-12-16T17:36:13.280Z,24.58
2022-12-16T17:41:28.304Z,22.90
2022-12-16T17:46:43.440Z,25.35
2022-12-16T17:51:58.903Z,30.48
2022-12-16T17:57:14.169Z,28.02
2022-12-16T18:02:31.348Z,30.02
2022-12-16T18:07:46.385Z,30.77
2022-12-16T18:13:01.206Z,37.30
2022-12-16T18:18:16.336Z,31.15
2022-12-16T18:23:32.134Z,30.08
2022-12-16T18:28:47.229Z,34.75
2022-12-16T18:34:02.110Z,37.67
2022-12-16T18:39:16.871Z,32.80
2022-12-16T18:44:32.365Z,36.13
2022-12-16T18:49:47.567Z,38.60
2022-12-16T18:55:04.299Z,28.98
2022-12-16T19:00:19.062Z,42.13
2022-12-16T19:05:34.735Z,38.10
2022-12-16T19:10:49.822Z,37.30
2022-12-16T19:16:14.857Z,38.45
2022-12-16T19:21:29.762Z,39.08
2022-12-16T19:26:45.221Z,51.72
2022-12-16T19:32:00.400Z,48.35
2022-12-16T19:37:15.427Z,56.25
2022-12-16T19:42:30.990Z,49.28
2022-12-16T19:47:45.786Z,42.30
2022-12-16T19:53:00.854Z,56.83
2022-12-16T19:58:15.858Z,48.33
2022-12-16T20:03:35.244Z,50.53
2022-12-16T20:08:50.421Z,43.38
2022-12-16T20:14:06.844Z,52.30
2022-12-16T20:19:21.732Z,48.47
2022-12-16T20:24:36.774Z,48.88
2022-12-16T20:29:51.681Z,40.42
2022-12-16T20:35:06.536Z,39.38
2022-12-16T20:40:22.785Z,46.72
2022-12-16T20:45:38.028Z,39.28
2022-12-16T20:50:53.535Z,41.40
2022-12-16T20:56:10.942Z,50.60
2022-12-16T21:01:26.213Z,48.20
2022-12-16T21:06:41.510Z,44.80
2022-12-16T21:11:56.727Z,50.88
2022-12-16T21:17:11.721Z,46.47
2022-12-16T21:22:26.758Z,47.50
2022-12-16T21:27:41.631Z,42.70
2022-12-16T21:32:56.756Z,46.95
2022-12-16T21:38:12.642Z,39.10
2022-12-16T21:43:27.874Z,40.58
2022-12-16T21:48:42.836Z,53.17
2022-12-16T21:53:58.645Z,42.90
2022-12-16T21:59:16.068Z,39.63
2022-12-16T22:04:31.221Z,43.90
2022-12-16T22:09:46.137Z,37.03
2022-12-16T22:15:01.220Z,39.53
2022-12-16T22:20:16.067Z,36.63
2022-12-16T22:25:30.933Z,38.85
2022-12-16T22:30:45.808Z,43.28
2022-12-16T22:36:01.041Z,34.70
2022-12-16T22:41:17.003Z,37.10
2022-12-16T22:46:31.982Z,38.03
2022-12-16T22:51:46.952Z,32.50
2022-12-16T22:57:02.725Z,42.60
2022-12-16T23:02:17.853Z,33.00
2022-12-16T23:07:32.979Z,34.75
2022-12-16T23:12:48.267Z,34.53
2022-12-16T23:18:03.545Z,34.78
2022-12-16T23:23:18.417Z,38.72
2022-12-16T23:28:33.175Z,35.78
2022-12-16T23:33:47.908Z,42.55
2022-12-16T23:39:02.736Z,36.50
2022-12-16T23:44:17.707Z,29.70
2022-12-16T23:49:33.326Z,40.08
2022-12-16T23:55:04.927Z,45.47
